Data for 10/25/2007

Time Sea-Level Adjusted Pressure Absolute Pressure Temperature Relative Humidity Dew Point   
(mb) (inHg) (mb) (inHg) (C) (F) (%) (C) (F)
00:05 1018 30.06 848 25.04 13.7 56.6 25 -5.9 21.4
00:10 1018 30.06 848 25.04 13.6 56.5 24 -6.8 19.8
00:15 1018 30.06 848 25.04 14.2 57.6 24 -5.9 21.4
00:20 1018 30.06 848 25.04 13.6 56.5 26 -5.7 21.7
00:25 1018 30.06 848 25.04 13.5 56.3 25 -6.3 20.7
00:30 1018 30.06 848 25.04 13.8 56.9 24 -6.2 20.8
00:35 1018 30.06 848 25.04 13.6 56.4 26 -5.7 21.7
00:40 1018 30.06 848 25.04 13.4 56.1 25 -6.4 20.5
00:45 1018 30.06 848 25.04 14.2 57.6 23 -6.5 20.3
00:50 1018 30.06 848 25.04 14.7 58.5 23 -5.9 21.4
00:55 1018 30.06 848 25.04 14.3 57.7 25 -5.5 22.1
01:00 1018 30.06 848 25.04 13.3 55.9 26 -5.9 21.4
01:05 1018 30.06 848 25.04 13.3 56 25 -6.2 20.9
01:10 1018 30.06 848 25.04 13.4 56.2 26 -5.5 22.1
01:15 1018 30.06 848 25.04 13.1 55.6 27 -5.5 22
01:20 1018 30.06 848 25.04 12.8 55 27 -5.6 21.9
01:25 1018 30.06 848 25.04 13.4 56.1 26 -5.6 22
01:30 1018 30.06 848 25.04 13.6 56.4 27 -4.9 23.1
01:35 1018 30.06 848 25.04 14.1 57.4 25 -5.7 21.8
01:40 1018 30.06 848 25.04 15.1 59.2 24 -5.5 22.1
01:45 1018 30.06 848 25.04 15.5 59.8 23 -5.5 22.2
01:50 1018 30.06 848 25.04 15.8 60.4 23 -5.5 22.1
01:55 1018 30.06 848 25.04 15.9 60.5 23 -5.1 22.9
02:00 1018 30.06 848 25.04 15.9 60.5 23 -5.2 22.7
02:05 1018 30.06 848 25.04 15.8 60.4 23 -5 23
02:10 1018 30.06 848 25.04 15.6 60.1 24 -5.1 22.9
02:15 1018 30.06 848 25.04 15.5 59.9 24 -5.1 22.8
02:20 1018 30.06 848 25.04 15.6 60.1 22 -5.7 21.7
02:25 1018 30.06 848 25.04 15.9 60.5 24 -4.7 23.5
02:30 1018 30.06 848 25.04 15.6 60 24 -4.9 23.1
02:35 1018 30.06 847 25.01 15.6 60 24 -4.9 23.2
02:40 1018 30.06 847 25.01 15.5 59.9 24 -5.1 22.9
02:45 1018 30.06 847 25.01 15.7 60.3 24 -4.7 23.5
02:50 1018 30.06 847 25.01 15.6 60.1 25 -4.2 24.4
02:55 1018 30.06 847 25.01 15.3 59.6 25 -4.7 23.5
03:00 1018 30.06 847 25.01 15.5 59.9 24 -4.6 23.6
03:05 1018 30.06 847 25.01 15.5 59.8 25 -4.5 23.9
03:10 1018 30.06 847 25.01 15.5 59.8 25 -4.5 23.8
03:15 1018 30.06 847 25.01 15.4 59.8 25 -4.6 23.7
03:20 1018 30.06 847 25.01 15.7 60.2 24 -5 23
03:25 1018 30.06 847 25.01 15.9 60.5 24 -4.6 23.7
03:30 1018 30.06 847 25.01 15.6 60.1 25 -4.3 24.3
03:35 1018 30.06 847 25.01 15.3 59.5 25 -4.3 24.2
03:40 1018 30.06 847 25.01 14.8 58.6 27 -3.9 24.9
03:45 1018 30.06 847 25.01 14.2 57.6 28 -4.1 24.7
03:50 1018 30.06 847 25.01 14.2 57.5 28 -4.2 24.5
03:55 1018 30.06 847 25.01 14 57.1 28 -4.1 24.7
04:00 1018 30.06 847 25.01 13.8 56.9 29 -4 24.7
04:05 1018 30.06 847 25.01 13.6 56.5 30 -3.7 25.4
04:10 1018 30.06 847 25.01 13.3 56 30 -4 24.8
04:15 1018 30.06 847 25.01 13.1 55.6 29 -4.3 24.3
04:20 1018 30.06 847 25.01 13.2 55.7 29 -4.2 24.4
04:25 1018 30.06 847 25.01 13.2 55.8 30 -3.8 25.1
04:30 1018 30.06 847 25.01 13 55.5 30 -4 24.9
04:35 1018 30.06 847 25.01 12.7 54.9 31 -3.9 24.9
04:40 1018 30.06 847 25.01 12.4 54.2 32 -4 24.8
04:45 1018 30.06 847 25.01 12.5 54.5 31 -4.3 24.3
04:50 1018 30.06 847 25.01 12.7 54.8 31 -3.8 25.1
04:55 1018 30.06 847 25.01 12 53.7 32 -3.9 25
05:00 1018 30.06 847 25.01 11.8 53.2 32 -4.4 24.1
05:05 1018 30.06 847 25.01 12 53.6 32 -4 24.7
05:10 1018 30.06 847 25.01 11.9 53.4 31 -4.7 23.6
05:15 1018 30.06 847 25.01 12.8 55.1 30 -4.2 24.4
05:20 1018 30.06 847 25.01 12.5 54.5 32 -3.7 25.4
05:25 1018 30.06 847 25.01 11.7 53.1 34 -3.7 25.3
05:30 1018 30.06 847 25.01 11.1 52.1 33 -4.4 24.1
05:35 1018 30.06 847 25.01 11.2 52.1 33 -4.5 23.9
05:40 1018 30.06 847 25.01 11.4 52.5 33 -4.4 24.1
05:45 1018 30.06 847 25.01 11.3 52.4 33 -4.3 24.3
05:50 1018 30.06 847 25.01 11.3 52.3 33 -4.5 23.9
05:55 1018 30.06 847 25.01 11.6 52.8 32 -4.5 24
06:00 1018 30.06 847 25.01 11.3 52.4 33 -4.1 24.5
06:05 1018 30.06 847 25.01 10.9 51.7 33 -4.5 23.9
06:10 1018 30.06 847 25.01 11.2 52.2 32 -4.7 23.5
06:15 1018 30.06 847 25.01 11.7 53.1 31 -4.7 23.5
06:20 1018 30.06 847 25.01 12.1 53.7 31 -4.5 23.8
06:25 1018 30.06 847 25.01 12.4 54.2 30 -4.5 23.9
06:30 1018 30.06 847 25.01 12.3 54.1 32 -4.1 24.6
06:35 1018 30.06 847 25.01 11.8 53.3 32 -4.1 24.6
06:40 1018 30.06 847 25.01 11.5 52.7 33 -4.1 24.7
06:45 1018 30.06 847 25.01 11.3 52.3 34 -4 24.8
06:50 1018 30.06 847 25.01 11.1 52.1 34 -4.2 24.4
06:55 1018 30.06 847 25.01 11.3 52.3 34 -4.1 24.7
07:00 1018 30.06 847 25.01 11.2 52.1 35 -3.8 25.2
07:05 1018 30.06 847 25.01 10.6 51 36 -3.7 25.3
07:10 1018 30.06 847 25.01 10.1 50.2 37 -3.7 25.3
07:15 1018 30.06 847 25.01 10.1 50.3 36 -4.2 24.4
07:20 1018 30.06 847 25.01 10.1 50.3 37 -3.7 25.4
07:25 1018 30.06 847 25.01 10.2 50.4 36 -4.3 24.3
07:30 1018 30.06 847 25.01 10.7 51.2 35 -4.2 24.5
07:35 1018 30.06 847 25.01 10.8 51.5 35 -3.9 24.9
07:40 1018 30.06 847 25.01 10.5 50.9 38 -3 26.5
07:45 1018 30.06 847 25.01 9.6 49.3 40 -3.2 26.3
07:50 1018 30.06 847 25.01 9.5 49.1 40 -3.4 25.9
07:55 1018 30.06 847 25.01 9.5 49.2 42 -2.8 27
08:00 1018 30.06 847 25.01 8.9 47.9 46 -2 28.3
08:05 1018 30.06 847 25.01 8.2 46.7 46 -2.9 26.8
08:10 1018 30.06 847 25.01 8.5 47.3 45 -2.8 26.9
08:15 1018 30.06 847 25.01 8.9 47.9 42 -3.3 26
08:20 1018 30.06 847 25.01 9.3 48.7 42 -3 26.5
08:25 1018 30.06 847 25.01 9.4 48.8 42 -2.9 26.8
08:30 1018 30.06 847 25.01 9.9 49.9 36 -4.4 24.2
08:35 1018 30.06 847 25.01 10.6 51.2 39 -2.7 27.1
08:40 1018 30.06 847 25.01 10.4 50.8 39 -2.9 26.7
08:45 1018 30.06 847 25.01 10.3 50.5 42 -2 28.4
08:50 1018 30.06 847 25.01 9.5 49 45 -1.8 28.8
08:55 1018 30.06 847 25.01 9.5 49.1 42 -2.8 27
09:00 1018 30.06 847 25.01 10.1 50.1 41 -2.7 27.2
09:05 1018 30.06 848 25.04 10.2 50.4 41 -2.3 27.9
09:10 1018 30.06 848 25.04 10.6 51.1 39 -2.6 27.4
09:15 1018 30.06 848 25.04 11.2 52.1 39 -2.3 27.8
09:20 1018 30.06 848 25.04 11.5 52.6 39 -2 28.4
09:25 1018 30.06 848 25.04 11.5 52.6 40 -1.8 28.8
09:30 1019 30.09 848 25.04 11.1 52 41 -1.6 29.2
09:35 1019 30.09 848 25.04 10.8 51.5 41 -1.7 28.9
09:40 1019 30.09 848 25.04 11.1 51.9 41 -1.8 28.8
09:45 1019 30.09 848 25.04 11.1 51.9 41 -1.5 29.2
09:50 1019 30.09 848 25.04 11 51.8 42 -1.5 29.3
09:55 1019 30.09 848 25.04 11.2 52.2 41 -1.4 29.4
10:00 1019 30.09 848 25.04 11.5 52.6 41 -1.4 29.5
10:05 1019 30.09 848 25.04 11.9 53.4 40 -1.3 29.7
10:10 1019 30.09 848 25.04 12.3 54.2 39 -1.1 30.1
10:15 1019 30.09 848 25.04 12.7 54.8 38 -1.2 29.9
10:20 1019 30.09 848 25.04 13.1 55.6 37 -1.1 30
10:25 1019 30.09 848 25.04 13.3 56 38 -0.7 30.8
10:30 1019 30.09 848 25.04 13.4 56.1 38 -0.4 31.3
10:35 1019 30.09 848 25.04 13.3 55.9 39 -0.2 31.6
10:40 1019 30.09 848 25.04 13.2 55.8 40 -0.1 31.8
10:45 1019 30.09 848 25.04 12.8 55 41 -0.1 31.9
10:50 1019 30.09 848 25.04 12.2 53.9 41 -0.5 31.1
10:55 1019 30.09 848 25.04 12.3 54.1 39 -1.4 29.5
11:00 1019 30.09 849 25.07 12.4 54.3 38 -1.5 29.4
11:05 1019 30.09 849 25.07 12.5 54.4 39 -1.2 29.9
11:10 1019 30.09 849 25.07 12.7 54.8 36 -1.8 28.7
11:15 1019 30.09 849 25.07 13 55.4 36 -1.7 28.9
11:20 1020 30.12 849 25.07 13.6 56.5 35 -1.4 29.5
11:25 1020 30.12 849 25.07 14 57.2 35 -1.3 29.7
11:30 1020 30.12 849 25.07 14.2 57.6 33 -1.5 29.2
11:35 1020 30.12 849 25.07 14.8 58.7 33 -1.3 29.6
11:40 1020 30.12 849 25.07 14.5 58.1 34 -1.1 30.1
11:45 1020 30.12 849 25.07 14.6 58.2 34 -1.2 29.9
11:50 1020 30.12 849 25.07 14.7 58.5 34 -1.1 30
11:55 1020 30.12 849 25.07 14.5 58.2 35 -0.7 30.7
12:00 1020 30.12 849 25.07 14.8 58.6 34 -0.8 30.5
12:05 1020 30.12 849 25.07 15 59 36 -0 31.9
12:10 1020 30.12 849 25.07 14.9 58.9 35 -0.2 31.6
12:15 1020 30.12 849 25.07 15.2 59.4 34 -0.3 31.4
12:20 1020 30.12 849 25.07 15.1 59.2 38 1.1 34
12:25 1020 30.12 849 25.07 14.7 58.4 37 0.3 32.5
12:30 1020 30.12 849 25.07 15.3 59.5 36 0.2 32.4
12:35 1019 30.09 849 25.07 15.6 60.1 36 0.7 33.3
12:40 1019 30.09 849 25.07 15.1 59.3 36 0.4 32.8
12:45 1019 30.09 849 25.07 15 59 36 0 32
12:50 1019 30.09 849 25.07 16 60.9 34 0.3 32.5
12:55 1019 30.09 849 25.07 16 60.8 34 0.3 32.5
13:00 1019 30.09 849 25.07 16 60.7 36 0.8 33.5
13:05 1019 30.09 849 25.07 15.8 60.5 35 0.5 32.8
13:10 1019 30.09 849 25.07 15.8 60.5 35 0.6 33
13:15 1019 30.09 848 25.04 16 60.8 35 0.7 33.3
13:20 1019 30.09 848 25.04 15.4 59.8 38 1.2 34.2
13:25 1019 30.09 848 25.04 15.9 60.5 36 1.1 33.9
13:30 1019 30.09 848 25.04 15.9 60.7 37 1.5 34.7
13:35 1019 30.09 848 25.04 15.7 60.3 36 0.8 33.4
13:40 1019 30.09 848 25.04 15.8 60.4 35 0.4 32.8
13:45 1019 30.09 848 25.04 16 60.8 36 1 33.9
13:50 1019 30.09 848 25.04 15.9 60.5 37 1.2 34.1
13:55 1019 30.09 848 25.04 15.7 60.3 38 1.5 34.7
14:00 1019 30.09 848 25.04 14.9 58.8 40 1.4 34.6
14:05 1019 30.09 848 25.04 14.7 58.4 40 1.4 34.5
14:10 1019 30.09 848 25.04 14.3 57.7 42 1.5 34.7
14:15 1019 30.09 848 25.04 14.3 57.7 41 1.2 34.2
14:20 1019 30.09 848 25.04 14.5 58.2 39 1 33.8
14:25 1019 30.09 848 25.04 15 59 39 1.1 34
14:30 1019 30.09 848 25.04 14.9 58.9 40 1.5 34.8
14:35 1019 30.09 848 25.04 14.8 58.7 39 1.2 34.2
14:40 1019 30.09 848 25.04 15.3 59.6 40 1.8 35.3
14:45 1019 30.09 848 25.04 15.2 59.3 39 1.5 34.7
14:50 1018 30.06 848 25.04 15.2 59.3 38 1 33.9
14:55 1018 30.06 848 25.04 15.3 59.5 39 1.6 34.8
15:00 1018 30.06 848 25.04 15.1 59.2 38 0.9 33.6
15:05 1018 30.06 848 25.04 15.5 59.8 36 0.7 33.3
15:10 1018 30.06 848 25.04 16.1 60.9 36 1.1 33.9
15:15 1018 30.06 847 25.01 16.1 60.9 38 1.8 35.2
15:20 1018 30.06 847 25.01 16.5 61.7 35 1 33.8
15:25 1018 30.06 848 25.04 17.4 63.2 33 1.2 34.1
15:30 1018 30.06 848 25.04 17.6 63.8 33 1.5 34.7
15:35 1018 30.06 848 25.04 17.6 63.7 35 1.9 35.4
15:40 1018 30.06 848 25.04 17 62.7 36 1.8 35.3
15:45 1018 30.06 848 25.04 16.9 62.4 35 1.5 34.6
15:50 1018 30.06 848 25.04 16.9 62.4 37 2.2 35.9
15:55 1018 30.06 848 25.04 16.2 61.2 37 1.5 34.7
16:00 1018 30.06 848 25.04 16.3 61.3 36 1.5 34.7
16:05 1018 30.06 848 25.04 16.2 61.1 38 1.9 35.4
16:10 1019 30.09 848 25.04 16.1 60.9 38 1.9 35.4
16:15 1019 30.09 848 25.04 16 60.9 39 2.1 35.7
16:20 1019 30.09 848 25.04 15.7 60.2 40 2.1 35.7
16:25 1019 30.09 848 25.04 15.4 59.7 39 1.6 34.8
16:30 1019 30.09 848 25.04 15.4 59.7 39 1.5 34.7
16:35 1019 30.09 848 25.04 15 59.1 41 2 35.6
16:40 1019 30.09 848 25.04 14.3 57.7 43 1.9 35.4
16:45 1019 30.09 848 25.04 13.9 56.9 43 1.7 35
16:50 1019 30.09 848 25.04 13.8 56.8 43 1.7 35
16:55 1019 30.09 848 25.04 13.5 56.3 44 1.6 34.8
17:00 1019 30.09 848 25.04 13.2 55.8 44 1.1 34.1
17:05 1019 30.09 848 25.04 13.2 55.7 43 0.9 33.6
17:10 1019 30.09 849 25.07 13.4 56 43 1 33.8
17:15 1019 30.09 849 25.07 13.2 55.7 42 0.8 33.4
17:20 1020 30.12 849 25.07 12.9 55.1 43 0.7 33.3
17:25 1020 30.12 849 25.07 12.1 53.8 46 0.8 33.4
17:30 1020 30.12 849 25.07 11.6 52.9 47 0.7 33.3
17:35 1020 30.12 849 25.07 11.4 52.5 48 0.9 33.6
17:40 1020 30.12 849 25.07 10.8 51.5 49 0.5 32.9
17:45 1020 30.12 849 25.07 10.4 50.6 51 0.6 33.1
17:50 1020 30.12 849 25.07 10.1 50.2 51 0.5 32.8
17:55 1020 30.12 849 25.07 10.1 50.2 53 0.9 33.6
18:00 1020 30.12 849 25.07 9.8 49.7 53 0.6 33.2
18:05 1020 30.12 849 25.07 9.8 49.6 52 0.5 32.9
18:10 1020 30.12 849 25.07 9.6 49.3 52 0.3 32.5
18:15 1020 30.12 849 25.07 9.3 48.8 50 -0.6 30.9
18:20 1020 30.12 850 25.1 9.3 48.8 50 -0.5 31.2
18:25 1020 30.12 849 25.07 9.2 48.6 51 -0.5 31.1
18:30 1020 30.12 850 25.1 8.7 47.7 49 -1.4 29.5
18:35 1020 30.12 850 25.1 8.4 47.1 48 -2 28.5
18:40 1020 30.12 850 25.1 8.2 46.8 49 -2 28.5
18:45 1021 30.15 850 25.1 8 46.3 49 -2.1 28.3
18:50 1021 30.15 850 25.1 7.7 45.9 49 -2.4 27.8
18:55 1021 30.15 850 25.1 7.7 45.9 50 -2.1 28.1
19:00 1021 30.15 850 25.1 7.5 45.5 51 -2 28.4
19:05 1021 30.15 850 25.1 7.3 45.2 51 -2.1 28.2
19:10 1021 30.15 850 25.1 7.4 45.3 50 -2.3 27.9
19:15 1021 30.15 850 25.1 7.4 45.3 50 -2.2 28
19:20 1021 30.15 850 25.1 7.2 44.9 51 -2.3 27.8
19:25 1021 30.15 850 25.1 7.1 44.7 51 -2.3 27.8
19:30 1021 30.15 850 25.1 7 44.6 50 -2.7 27.1
19:35 1021 30.15 850 25.1 6.8 44.3 50 -2.8 27
19:40 1021 30.15 850 25.1 6.7 44 50 -3.1 26.4
19:45 1021 30.15 850 25.1 6.6 43.9 50 -3.1 26.4
19:50 1021 30.15 850 25.1 6.6 43.9 49 -3.2 26.2
19:55 1021 30.15 851 25.13 6.7 44.1 49 -3.1 26.4
20:00 1021 30.15 851 25.13 6.6 44 49 -3.2 26.2
20:05 1022 30.18 851 25.13 6.5 43.8 50 -3.1 26.4
20:10 1022 30.18 851 25.13 6.5 43.7 50 -3.1 26.4
20:15 1022 30.18 851 25.13 6.5 43.6 50 -3.2 26.3
20:20 1022 30.18 851 25.13 6.3 43.4 49 -3.6 25.6
20:25 1022 30.18 851 25.13 6.3 43.4 48 -4 24.8
20:30 1022 30.18 851 25.13 6.3 43.4 47 -4.2 24.5
20:35 1022 30.18 851 25.13 6.3 43.3 46 -4.4 24.1
20:40 1022 30.18 851 25.13 6.3 43.4 46 -4.6 23.8
20:45 1022 30.18 851 25.13 6.3 43.4 44 -4.9 23.1
20:50 1022 30.18 851 25.13 6.2 43.2 45 -4.8 23.3
20:55 1022 30.18 851 25.13 6.2 43.2 43 -5.4 22.2
21:00 1022 30.18 851 25.13 6.2 43.1 43 -5.4 22.3
21:05 1022 30.18 851 25.13 6.3 43.3 44 -5.1 22.8
21:10 1022 30.18 851 25.13 6.1 43 43 -5.4 22.3
21:15 1022 30.18 851 25.13 6 42.8 41 -6.3 20.6
21:20 1022 30.18 851 25.13 6 42.7 39 -6.8 19.7
21:25 1022 30.18 851 25.13 6 42.8 40 -6.5 20.3
21:30 1022 30.18 851 25.13 6 42.7 39 -7.1 19.3
21:35 1022 30.18 852 25.16 5.8 42.4 39 -7.2 19.1
21:40 1022 30.18 852 25.16 5.7 42.3 41 -6.6 20
21:45 1022 30.18 852 25.16 5.7 42.2 41 -6.6 20.1
21:50 1023 30.21 852 25.16 5.6 42.1 42 -6.4 20.4
21:55 1023 30.21 852 25.16 5.5 41.9 42 -6.2 20.8
22:00 1023 30.21 852 25.16 5.5 41.8 44 -5.9 21.4
22:05 1023 30.21 852 25.16 5.3 41.6 44 -5.8 21.5
22:10 1023 30.21 852 25.16 5.4 41.7 47 -5.1 22.8
22:15 1023 30.21 852 25.16 5.3 41.5 51 -3.9 25
22:20 1023 30.21 852 25.16 5 41.1 54 -3.6 25.5
22:25 1023 30.21 852 25.16 4.8 40.7 56 -3.2 26.2
22:30 1023 30.21 852 25.16 4.6 40.3 59 -2.8 27
22:35 1023 30.21 852 25.16 4.3 39.7 61 -2.6 27.4
22:40 1023 30.21 852 25.16 4.1 39.3 65 -1.9 28.6
22:45 1023 30.21 852 25.16 3.8 38.8 69 -1.5 29.4
22:50 1023 30.21 852 25.16 3.5 38.3 71 -1.4 29.5
22:55 1023 30.21 852 25.16 3.3 37.9 73 -1.1 30.1
23:00 1023 30.21 853 25.19 3.1 37.6 75 -0.9 30.3
23:05 1023 30.21 853 25.19 3.1 37.5 76 -0.8 30.6
23:10 1024 30.24 853 25.19 2.9 37.3 77 -0.8 30.6
23:15 1024 30.24 853 25.19 2.9 37.1 77 -0.9 30.4
23:20 1024 30.24 853 25.19 2.8 37 78 -0.7 30.7
23:25 1024 30.24 853 25.19 2.6 36.8 78 -0.8 30.5
23:30 1024 30.24 853 25.19 2.5 36.6 78 -0.8 30.5
23:35 1024 30.24 853 25.19 2.4 36.3 79 -0.8 30.5
23:40 1024 30.24 853 25.19 2.4 36.3 79 -0.9 30.4
23:45 1024 30.24 853 25.19 2.3 36.1 80 -0.8 30.6
23:50 1024 30.24 853 25.19 2.2 36 80 -0.9 30.4
23:55 1024 30.24 853 25.19 2.3 36.1 81 -0.7 30.7
24:00 1024 30.24 854 25.22 2.2 36 81 -0.7 30.7